createdAt,value
2017-08-07T00:01:18.081Z,94751.14
2017-08-07T00:03:45.632Z,94743.17
2017-08-07T00:06:13.185Z,94741.48
2017-08-07T00:08:40.766Z,94735.58
2017-08-07T00:11:08.341Z,94731.27
2017-08-07T00:13:35.858Z,94735.58
2017-08-07T00:16:03.453Z,94733.72
2017-08-07T00:18:30.988Z,94729.80
2017-08-07T00:20:58.536Z,94724.88
2017-08-07T00:23:26.051Z,94730.82
2017-08-07T00:25:53.618Z,94724.70
2017-08-07T00:28:21.170Z,94726.28
2017-08-07T00:30:48.691Z,94728.45
2017-08-07T00:33:16.257Z,94724.25
2017-08-07T00:35:43.770Z,94722.47
2017-08-07T00:38:11.321Z,94722.91
2017-08-07T00:40:38.991Z,94714.87
2017-08-07T00:43:06.639Z,94727.68
2017-08-07T00:45:34.214Z,94729.70
2017-08-07T00:48:01.735Z,94726.27
2017-08-07T00:50:29.259Z,94725.95
2017-08-07T00:52:56.808Z,94728.16
2017-08-07T00:55:24.328Z,94723.23
2017-08-07T00:57:51.879Z,94724.38
2017-08-07T01:00:19.477Z,94722.06
2017-08-07T01:02:46.985Z,94721.83
2017-08-07T01:05:14.501Z,94723.16
2017-08-07T01:07:42.111Z,94717.34
2017-08-07T01:10:09.639Z,94721.37
2017-08-07T01:12:37.212Z,94728.30
2017-08-07T01:15:04.897Z,94726.44
2017-08-07T01:17:32.454Z,94724.55
2017-08-07T01:19:59.968Z,94727.47
2017-08-07T01:22:27.525Z,94736.77
2017-08-07T01:24:55.034Z,94734.73
2017-08-07T01:27:22.546Z,94726.04
2017-08-07T01:29:50.085Z,94725.97
2017-08-07T01:32:17.599Z,94725.97
2017-08-07T01:34:45.156Z,94725.58
2017-08-07T01:37:12.669Z,94722.59
2017-08-07T01:39:40.235Z,94727.43
2017-08-07T01:42:07.789Z,94724.53
2017-08-07T01:44:35.440Z,94724.16
2017-08-07T01:47:03.006Z,94722.36
2017-08-07T01:49:31.106Z,94719.16
2017-08-07T01:51:58.617Z,94717.00
2017-08-07T01:54:26.205Z,94719.37
2017-08-07T01:56:53.861Z,94720.77
2017-08-07T01:59:21.373Z,94724.44
2017-08-07T02:01:48.922Z,94723.30
2017-08-07T02:04:16.486Z,94730.75
2017-08-07T02:06:44.033Z,94729.86
2017-08-07T02:09:11.612Z,94728.00
2017-08-07T02:11:39.296Z,94727.09
2017-08-07T02:14:06.873Z,94741.59
2017-08-07T02:16:34.439Z,94735.26
2017-08-07T02:19:02.076Z,94752.74
2017-08-07T02:21:29.608Z,94748.70
2017-08-07T02:23:57.168Z,94746.98
2017-08-07T02:26:24.684Z,94746.41
2017-08-07T02:28:52.193Z,94757.87
2017-08-07T02:31:19.762Z,94759.86
2017-08-07T02:33:47.277Z,94759.27
2017-08-07T02:36:14.863Z,94761.43
2017-08-07T02:38:42.397Z,94761.70
2017-08-07T02:41:10.005Z,94752.77
2017-08-07T02:43:37.659Z,94756.34
2017-08-07T02:46:05.309Z,94758.29
2017-08-07T02:48:32.859Z,94758.12
2017-08-07T02:51:00.429Z,94763.47
2017-08-07T02:53:27.993Z,94760.51
2017-08-07T02:55:55.500Z,94754.63
2017-08-07T02:58:23.011Z,94757.31
2017-08-07T03:00:50.601Z,94753.30
2017-08-07T03:03:18.176Z,94751.52
2017-08-07T03:05:45.703Z,94746.81
2017-08-07T03:08:13.262Z,94750.19
2017-08-07T03:10:40.831Z,94751.29
2017-08-07T03:13:08.559Z,94752.72
2017-08-07T03:15:36.356Z,94748.91
2017-08-07T03:18:04.047Z,94742.89
2017-08-07T03:20:31.578Z,94759.47
2017-08-07T03:22:59.159Z,94756.25
2017-08-07T03:25:26.871Z,94764.66
2017-08-07T03:27:54.553Z,94763.41
2017-08-07T03:30:22.253Z,94758.69
2017-08-07T03:32:49.978Z,94766.28
2017-08-07T03:35:17.569Z,94771.87
2017-08-07T03:37:45.251Z,94768.88
2017-08-07T03:40:12.765Z,94769.84
2017-08-07T03:42:40.660Z,94768.94
2017-08-07T03:45:08.588Z,94772.05
2017-08-07T03:47:36.249Z,94777.72
2017-08-07T03:50:03.852Z,94779.52
2017-08-07T03:52:31.400Z,94775.80
2017-08-07T03:54:58.950Z,94774.40
2017-08-07T03:57:26.539Z,94776.58
2017-08-07T03:59:54.248Z,94774.22
2017-08-07T04:02:21.781Z,94782.06
2017-08-07T04:04:49.349Z,94772.49
2017-08-07T04:07:16.932Z,94773.09
2017-08-07T04:09:44.483Z,94768.50
2017-08-07T04:12:12.137Z,94765.73
2017-08-07T04:14:40.542Z,94776.34
2017-08-07T04:17:08.073Z,94781.92
2017-08-07T04:19:36.417Z,94781.48
2017-08-07T04:22:04.444Z,94778.62
2017-08-07T04:24:32.059Z,94778.63
2017-08-07T04:26:59.604Z,94785.62
2017-08-07T04:29:27.171Z,94780.34
2017-08-07T04:31:54.718Z,94786.53
2017-08-07T04:34:22.310Z,94793.10
2017-08-07T04:36:49.943Z,94792.08
2017-08-07T04:39:17.465Z,94792.22
2017-08-07T04:41:45.148Z,94795.87
2017-08-07T04:44:12.808Z,94800.80
2017-08-07T04:46:40.358Z,94801.99
2017-08-07T04:49:08.187Z,94812.02
2017-08-07T04:51:35.995Z,94797.86
2017-08-07T04:54:03.592Z,94807.25
2017-08-07T04:56:31.202Z,94805.85
2017-08-07T04:58:58.721Z,94808.16
2017-08-07T05:01:26.259Z,94806.38
2017-08-07T05:03:53.942Z,94809.30
2017-08-07T05:06:21.524Z,94812.50
2017-08-07T05:08:49.171Z,94812.44
2017-08-07T05:11:16.799Z,94823.16
2017-08-07T05:13:44.381Z,94809.73
2017-08-07T05:16:11.931Z,94826.17
2017-08-07T05:18:39.734Z,94827.44
2017-08-07T05:21:07.447Z,94829.23
2017-08-07T05:23:35.182Z,94829.45
2017-08-07T05:26:02.815Z,94824.16
2017-08-07T05:28:30.462Z,94824.69
2017-08-07T05:30:58.067Z,94832.16
2017-08-07T05:33:25.802Z,94835.52
2017-08-07T05:35:53.392Z,94838.11
2017-08-07T05:38:20.978Z,94835.42
2017-08-07T05:40:49.192Z,94836.08
2017-08-07T05:43:16.738Z,94842.31
2017-08-07T05:45:44.428Z,94840.32
2017-08-07T05:48:12.361Z,94833.55
2017-08-07T05:50:40.916Z,94838.61
2017-08-07T05:53:08.620Z,94831.52
2017-08-07T05:55:36.560Z,94829.73
2017-08-07T05:58:04.464Z,94823.32
2017-08-07T06:00:32.149Z,94812.03
2017-08-07T06:02:59.766Z,94828.20
2017-08-07T06:05:28.249Z,94834.30
2017-08-07T06:07:55.886Z,94835.95
2017-08-07T06:10:23.707Z,94844.64
2017-08-07T06:12:51.263Z,94841.94
2017-08-07T06:15:19.453Z,94840.45
2017-08-07T06:17:47.790Z,94841.28
2017-08-07T06:20:15.982Z,94839.99
2017-08-07T06:25:19.916Z,94850.20
2017-08-07T06:27:52.405Z,94842.59
2017-08-07T06:33:40.989Z,94827.14
2017-08-07T06:36:08.625Z,94837.58
2017-08-07T06:38:36.576Z,94837.19
2017-08-07T06:41:04.340Z,94847.72
2017-08-07T06:43:31.947Z,94843.47
2017-08-07T06:45:59.694Z,94831.23
2017-08-07T06:48:27.482Z,94847.61
2017-08-07T06:50:55.141Z,94825.81
2017-08-07T06:53:24.346Z,94837.70
2017-08-07T06:55:52.361Z,94843.94
2017-08-07T06:58:20.178Z,94857.23
2017-08-07T07:00:47.781Z,94858.17
2017-08-07T07:03:15.873Z,94845.22
2017-08-07T07:05:43.438Z,94830.63
2017-08-07T07:08:11.081Z,94832.34
2017-08-07T07:10:41.668Z,94863.91
2017-08-07T07:13:10.026Z,94847.89
2017-08-07T07:15:37.782Z,94856.70
2017-08-07T07:18:05.784Z,94851.41
2017-08-07T07:30:57.061Z,94838.38
2017-08-07T07:36:29.159Z,94852.45
2017-08-07T07:42:18.685Z,94844.65
2017-08-07T07:44:49.573Z,94847.84
2017-08-07T07:47:18.570Z,94834.65
2017-08-07T07:53:09.889Z,94843.05
2017-08-07T07:55:38.073Z,94824.72
2017-08-07T07:58:11.798Z,94838.89
2017-08-07T08:00:43.879Z,94841.95
2017-08-07T08:03:11.911Z,94836.66
2017-08-07T08:05:43.965Z,94835.50
2017-08-07T08:08:13.544Z,94843.42
2017-08-07T08:10:41.557Z,94835.85
2017-08-07T08:13:11.322Z,94833.03
2017-08-07T08:15:41.549Z,94846.36
2017-08-07T08:18:11.542Z,94844.75
2017-08-07T08:20:43.408Z,94837.42
2017-08-07T08:23:12.995Z,94839.77
2017-08-07T08:25:43.261Z,94831.69
2017-08-07T08:28:15.220Z,94836.15
2017-08-07T08:33:19.463Z,94833.27
2017-08-07T08:38:52.874Z,94840.61
2017-08-07T08:41:21.504Z,94843.37
2017-08-07T08:43:50.283Z,94844.77
2017-08-07T08:46:19.513Z,94837.61
2017-08-07T08:48:49.204Z,94836.89
2017-08-07T08:51:17.117Z,94834.48
2017-08-07T08:53:47.746Z,94836.95
2017-08-07T08:56:23.614Z,94840.51
2017-08-07T08:58:51.272Z,94832.02
2017-08-07T09:01:19.302Z,94827.16
2017-08-07T09:03:47.198Z,94838.19
2017-08-07T09:06:17.929Z,94829.55
2017-08-07T09:08:47.842Z,94833.33
2017-08-07T09:11:16.017Z,94835.25
2017-08-07T09:13:46.299Z,94827.37
2017-08-07T09:16:14.546Z,94831.83
2017-08-07T09:18:44.020Z,94832.03
2017-08-07T09:21:11.988Z,94829.79
2017-08-07T09:23:40.599Z,94825.92
2017-08-07T09:26:25.146Z,94828.81
2017-08-07T09:28:59.375Z,94826.19
2017-08-07T09:31:30.527Z,94832.98
2017-08-07T09:33:58.254Z,94824.16
2017-08-07T09:36:32.421Z,94823.34
2017-08-07T09:39:00.253Z,94825.30
2017-08-07T09:41:28.936Z,94824.45
2017-08-07T09:43:56.728Z,94821.28
2017-08-07T09:46:30.610Z,94798.47
2017-08-07T09:49:23.329Z,94815.08
2017-08-07T09:51:52.505Z,94812.01
2017-08-07T09:54:20.255Z,94816.02
2017-08-07T09:56:48.005Z,94805.43
2017-08-07T09:59:16.133Z,94801.41
2017-08-07T10:01:43.984Z,94800.63
2017-08-07T10:04:13.523Z,94801.30
2017-08-07T10:06:46.258Z,94795.92
2017-08-07T10:09:15.125Z,94796.36
2017-08-07T10:11:48.975Z,94795.42
2017-08-07T10:14:25.137Z,94789.66
2017-08-07T10:16:52.962Z,94780.98
2017-08-07T10:19:20.717Z,94789.02
2017-08-07T10:21:49.128Z,94778.66
2017-08-07T10:24:19.245Z,94782.66
2017-08-07T10:26:47.409Z,94775.44
2017-08-07T10:29:15.132Z,94770.47
2017-08-07T10:31:43.368Z,94780.13
2017-08-07T10:42:59.267Z,94763.56
2017-08-07T10:48:25.039Z,94748.16
2017-08-07T10:50:56.924Z,94763.70
2017-08-07T10:56:07.809Z,94761.91
2017-08-07T10:58:37.289Z,94760.14
2017-08-07T11:01:07.934Z,94763.52
2017-08-07T11:03:38.627Z,94751.27
2017-08-07T11:06:08.459Z,94747.48
2017-08-07T11:08:37.733Z,94762.57
2017-08-07T11:11:10.128Z,94753.81
2017-08-07T11:16:47.182Z,94753.96
2017-08-07T11:19:23.068Z,94750.45
2017-08-07T11:22:58.728Z,94752.68
2017-08-07T11:25:55.580Z,94738.81
2017-08-07T11:28:27.973Z,94749.50
2017-08-07T11:30:57.573Z,94751.74
2017-08-07T11:33:26.909Z,94734.33
2017-08-07T11:39:25.446Z,94736.23
2017-08-07T11:41:55.197Z,94734.41
2017-08-07T11:44:24.496Z,94739.81
2017-08-07T11:46:52.764Z,94734.70
2017-08-07T11:49:28.777Z,94737.75
2017-08-07T11:51:56.442Z,94726.77
2017-08-07T11:54:26.714Z,94728.97
2017-08-07T11:56:55.925Z,94716.94
2017-08-07T11:59:26.157Z,94718.11
2017-08-07T12:02:03.858Z,94712.82
2017-08-07T12:08:12.417Z,94711.08
2017-08-07T12:11:01.199Z,94683.75
2017-08-07T12:13:46.111Z,94699.14
2017-08-07T12:22:37.087Z,94704.12
2017-08-07T12:28:16.723Z,94698.48
2017-08-07T12:30:45.442Z,94699.00
2017-08-07T12:33:20.468Z,94703.77
2017-08-07T12:35:48.652Z,94703.77
2017-08-07T12:38:19.667Z,94712.00
2017-08-07T12:40:48.401Z,94705.42
2017-08-07T12:43:18.273Z,94704.12
2017-08-07T12:45:50.868Z,94703.72
2017-08-07T12:51:17.873Z,94689.37
2017-08-07T12:53:49.691Z,94680.34
2017-08-07T12:56:33.036Z,94680.30
2017-08-07T12:59:02.792Z,94678.10
2017-08-07T13:01:30.591Z,94675.66
2017-08-07T13:04:00.976Z,94676.12
2017-08-07T13:06:28.885Z,94704.38
2017-08-07T13:08:56.657Z,94704.52
2017-08-07T13:11:24.361Z,94706.30
2017-08-07T13:13:52.108Z,94703.05
2017-08-07T13:16:19.834Z,94705.20
2017-08-07T13:18:47.398Z,94689.13
2017-08-07T13:21:15.008Z,94693.45
2017-08-07T13:23:43.034Z,94702.97
2017-08-07T13:26:13.300Z,94705.16
2017-08-07T13:28:41.095Z,94743.16
2017-08-07T13:31:08.961Z,94793.37
2017-08-07T13:33:37.068Z,94844.95
2017-08-07T13:36:07.061Z,94896.66
2017-08-07T13:38:36.623Z,94923.77
2017-08-07T13:41:05.606Z,94923.73
2017-08-07T13:43:33.267Z,94925.91
2017-08-07T13:46:00.955Z,94954.23
2017-08-07T13:48:28.530Z,94977.22
2017-08-07T13:50:56.295Z,94980.81
2017-08-07T13:53:23.899Z,94996.23
2017-08-07T13:55:51.774Z,94959.49
2017-08-07T13:58:19.442Z,94954.14
2017-08-07T14:00:47.135Z,94948.92
2017-08-07T14:03:14.755Z,94934.35
2017-08-07T14:05:42.374Z,94938.16
2017-08-07T14:08:10.007Z,94925.81
2017-08-07T14:10:37.985Z,94924.74
2017-08-07T14:13:06.204Z,94938.69
2017-08-07T14:15:34.215Z,94935.31
2017-08-07T14:18:02.220Z,94928.20
2017-08-07T14:20:30.183Z,94910.77
2017-08-07T14:22:57.846Z,94928.53
2017-08-07T14:25:26.058Z,94931.00
2017-08-07T14:27:54.724Z,94930.92
2017-08-07T14:30:27.494Z,94941.34
2017-08-07T14:32:55.106Z,94943.97
2017-08-07T14:35:22.721Z,94926.91
2017-08-07T14:37:50.697Z,94923.17
2017-08-07T14:40:18.351Z,94922.42
2017-08-07T14:42:46.087Z,94911.44
2017-08-07T14:45:13.952Z,94924.96
2017-08-07T14:47:44.544Z,94950.71
2017-08-07T14:50:12.349Z,94964.30
2017-08-07T14:52:41.396Z,94971.08
2017-08-07T14:55:09.117Z,94985.09
2017-08-07T14:57:37.458Z,95010.45
2017-08-07T15:00:05.097Z,95019.30
2017-08-07T15:02:32.917Z,95035.34
2017-08-07T15:05:00.938Z,95026.84
2017-08-07T15:07:28.470Z,95036.69
2017-08-07T15:09:56.307Z,95036.28
2017-08-07T15:12:24.002Z,95048.47
2017-08-07T15:14:51.683Z,95048.84
2017-08-07T15:17:19.287Z,95064.04
2017-08-07T15:19:46.893Z,95042.49
2017-08-07T15:22:14.469Z,95065.33
2017-08-07T15:24:42.120Z,95065.12
2017-08-07T15:27:09.876Z,95055.39
2017-08-07T15:29:37.835Z,95049.28
2017-08-07T15:32:05.401Z,95030.83
2017-08-07T15:34:32.997Z,95016.50
2017-08-07T15:37:00.511Z,95013.88
2017-08-07T15:39:28.111Z,95009.38
2017-08-07T15:41:55.675Z,95004.53
2017-08-07T15:44:23.289Z,94995.17
2017-08-07T15:46:50.867Z,94998.70
2017-08-07T15:49:18.376Z,94993.03
2017-08-07T15:51:45.896Z,94998.80
2017-08-07T15:54:13.514Z,94998.66
2017-08-07T15:56:41.094Z,94992.83
2017-08-07T15:59:08.755Z,94986.04
2017-08-07T16:01:36.479Z,94986.19
2017-08-07T16:04:05.089Z,94988.18
2017-08-07T16:06:32.804Z,94986.59
2017-08-07T16:09:00.382Z,94983.31
2017-08-07T16:11:27.907Z,94995.25
2017-08-07T16:13:55.475Z,94996.30
2017-08-07T16:16:23.010Z,95005.94
2017-08-07T16:18:50.558Z,95009.80
2017-08-07T16:21:18.140Z,95014.23
2017-08-07T16:23:45.808Z,95014.91
2017-08-07T16:26:13.338Z,95016.25
2017-08-07T16:28:40.859Z,95021.06
2017-08-07T16:31:08.573Z,95008.83
2017-08-07T16:33:36.085Z,95009.11
2017-08-07T16:36:03.733Z,95014.70
2017-08-07T16:38:31.280Z,95012.52
2017-08-07T16:40:58.841Z,95012.56
2017-08-07T16:43:26.372Z,95002.45
2017-08-07T16:45:53.889Z,95003.63
2017-08-07T16:48:21.481Z,95018.94
2017-08-07T16:50:49.067Z,95023.80
2017-08-07T16:53:16.618Z,95010.95
2017-08-07T16:55:44.247Z,95018.17
2017-08-07T16:58:11.770Z,95017.31
2017-08-07T17:00:39.321Z,95015.02
2017-08-07T17:03:06.944Z,95018.88
2017-08-07T17:05:34.528Z,95015.87
2017-08-07T17:08:02.110Z,95016.37
2017-08-07T17:10:29.715Z,94999.73
2017-08-07T17:12:57.321Z,95002.29
2017-08-07T17:15:24.846Z,95000.26
2017-08-07T17:17:52.440Z,95005.84
2017-08-07T17:20:20.063Z,94999.63
2017-08-07T17:22:47.612Z,95007.48
2017-08-07T17:25:15.120Z,95011.70
2017-08-07T17:27:42.932Z,95013.27
2017-08-07T17:30:10.470Z,95017.45
2017-08-07T17:32:38.132Z,95021.63
2017-08-07T17:35:05.691Z,95027.15
2017-08-07T17:37:33.226Z,95028.16
2017-08-07T17:40:00.754Z,95022.30
2017-08-07T17:42:28.385Z,95041.08
2017-08-07T17:44:55.956Z,95036.86
2017-08-07T17:47:23.475Z,95036.00
2017-08-07T17:49:51.031Z,95038.30
2017-08-07T17:52:18.559Z,95053.50
2017-08-07T17:54:46.137Z,95044.56
2017-08-07T17:57:13.653Z,95050.39
2017-08-07T17:59:41.202Z,95042.31
2017-08-07T18:02:08.765Z,95043.66
2017-08-07T18:04:36.337Z,95052.59
2017-08-07T18:07:03.948Z,95049.69
2017-08-07T18:09:31.473Z,95056.38
2017-08-07T18:11:59.059Z,95050.39
2017-08-07T18:14:26.621Z,95070.08
2017-08-07T18:16:54.158Z,95063.39
2017-08-07T18:19:21.713Z,95055.69
2017-08-07T18:22:02.206Z,95052.26
2017-08-07T18:24:29.765Z,95063.97
2017-08-07T18:26:57.301Z,95071.52
2017-08-07T18:29:24.823Z,95061.05
2017-08-07T18:31:52.383Z,95070.78
2017-08-07T18:34:19.906Z,95075.66
2017-08-07T18:36:47.463Z,95078.61
2017-08-07T18:39:15.031Z,95087.64
2017-08-07T18:41:42.636Z,95080.80
2017-08-07T18:44:10.198Z,95067.38
2017-08-07T18:46:37.733Z,95080.22
2017-08-07T18:49:05.302Z,95086.14
2017-08-07T18:51:32.895Z,95088.40
2017-08-07T18:54:00.482Z,95098.41
2017-08-07T18:56:28.081Z,95097.45
2017-08-07T18:58:55.652Z,95103.05
2017-08-07T19:01:23.210Z,95106.28
2017-08-07T19:03:50.781Z,95104.34
2017-08-07T19:06:18.350Z,95106.48
2017-08-07T19:08:46.082Z,95107.72
2017-08-07T19:11:13.658Z,95107.34
2017-08-07T19:13:41.266Z,95112.91
2017-08-07T19:16:08.913Z,95112.00
2017-08-07T19:18:36.769Z,95114.81
2017-08-07T19:21:04.480Z,95118.55
2017-08-07T19:23:32.122Z,95120.49
2017-08-07T19:25:59.803Z,95132.95
2017-08-07T19:28:27.363Z,95129.14
2017-08-07T19:30:54.953Z,95139.91
2017-08-07T19:33:22.547Z,95139.34
2017-08-07T19:35:50.128Z,95142.09
2017-08-07T19:38:17.771Z,95141.34
2017-08-07T19:40:45.337Z,95138.37
2017-08-07T19:43:12.936Z,95134.44
2017-08-07T19:45:40.536Z,95130.31
2017-08-07T19:48:08.186Z,95139.44
2017-08-07T19:50:35.822Z,95127.23
2017-08-07T19:53:03.381Z,95133.34
2017-08-07T19:55:31.003Z,95134.98
2017-08-07T19:57:58.633Z,95135.25
2017-08-07T20:00:26.210Z,95138.02
2017-08-07T20:02:54.732Z,95122.84
2017-08-07T20:05:22.338Z,95147.44
2017-08-07T20:07:49.899Z,95145.34
2017-08-07T20:10:17.505Z,95144.90
2017-08-07T20:12:45.124Z,95151.16
2017-08-07T20:15:12.738Z,95134.22
2017-08-07T20:17:40.348Z,95159.27
2017-08-07T20:20:07.944Z,95153.07
2017-08-07T20:22:35.833Z,95144.69
2017-08-07T20:25:03.413Z,95169.88
2017-08-07T20:27:30.996Z,95169.41
2017-08-07T20:29:58.592Z,95171.52
2017-08-07T20:32:26.392Z,95163.02
2017-08-07T20:34:54.011Z,95183.23
2017-08-07T20:37:21.652Z,95182.86
2017-08-07T20:39:49.207Z,95174.93
2017-08-07T20:42:16.764Z,95174.92
2017-08-07T20:44:44.431Z,95170.08
2017-08-07T20:47:12.143Z,95190.42
2017-08-07T20:49:39.793Z,95188.59
2017-08-07T20:52:07.514Z,95187.94
2017-08-07T20:54:35.715Z,95191.91
2017-08-07T20:57:03.365Z,95196.11
2017-08-07T20:59:31.023Z,95197.41
2017-08-07T21:01:58.636Z,95203.93
2017-08-07T21:04:26.208Z,95205.30
2017-08-07T21:06:53.755Z,95204.62
2017-08-07T21:09:21.367Z,95199.35
2017-08-07T21:11:48.923Z,95198.36
2017-08-07T21:14:16.500Z,95187.12
2017-08-07T21:16:44.152Z,95201.86
2017-08-07T21:19:11.707Z,95201.02
2017-08-07T21:21:39.268Z,95197.47
2017-08-07T21:24:06.916Z,95200.61
2017-08-07T21:26:34.536Z,95206.02
2017-08-07T21:29:02.184Z,95217.97
2017-08-07T21:31:29.752Z,95209.22
2017-08-07T21:33:57.383Z,95215.37
2017-08-07T21:36:25.012Z,95208.54
2017-08-07T21:38:52.612Z,95204.38
2017-08-07T21:41:20.197Z,95208.04
2017-08-07T21:43:47.837Z,95193.45
2017-08-07T21:46:15.404Z,95204.80
2017-08-07T21:48:43.007Z,95203.38
2017-08-07T21:51:10.556Z,95182.53
2017-08-07T21:53:38.158Z,95196.27
2017-08-07T21:56:05.967Z,95212.50
2017-08-07T21:58:33.549Z,95201.59
2017-08-07T22:01:01.168Z,95195.98
2017-08-07T22:03:28.733Z,95192.16
2017-08-07T22:05:56.344Z,95186.66
2017-08-07T22:08:23.927Z,95184.67
2017-08-07T22:10:51.549Z,95190.81
2017-08-07T22:13:19.120Z,95195.48
2017-08-07T22:15:46.968Z,95194.06
2017-08-07T22:18:14.631Z,95195.91
2017-08-07T22:20:42.196Z,95201.72
2017-08-07T22:23:09.780Z,95196.98
2017-08-07T22:25:37.412Z,95203.89
2017-08-07T22:28:04.979Z,95186.91
2017-08-07T22:30:32.605Z,95195.91
2017-08-07T22:33:00.222Z,95191.56
2017-08-07T22:35:27.788Z,95192.78
2017-08-07T22:37:55.364Z,95195.66
2017-08-07T22:40:22.973Z,95195.88
2017-08-07T22:42:50.591Z,95194.42
2017-08-07T22:45:18.201Z,95193.13
2017-08-07T22:47:45.849Z,95187.70
2017-08-07T22:50:13.431Z,95192.52
2017-08-07T22:52:41.042Z,95192.36
2017-08-07T22:55:08.599Z,95176.67
2017-08-07T22:57:36.199Z,95174.96
2017-08-07T23:00:03.793Z,95176.22
2017-08-07T23:02:31.558Z,95162.80
2017-08-07T23:04:59.241Z,95157.11
2017-08-07T23:07:26.859Z,95167.52
2017-08-07T23:09:54.447Z,95157.91
2017-08-07T23:12:22.005Z,95167.25
2017-08-07T23:14:49.603Z,95156.00
2017-08-07T23:17:17.251Z,95140.86
2017-08-07T23:19:44.811Z,95155.45
2017-08-07T23:22:12.412Z,95150.20
2017-08-07T23:24:39.992Z,95150.89
2017-08-07T23:27:07.599Z,95136.36
2017-08-07T23:29:35.167Z,95139.09
2017-08-07T23:32:02.775Z,95150.96
2017-08-07T23:34:30.399Z,95149.37
2017-08-07T23:36:57.976Z,95148.22
2017-08-07T23:39:25.539Z,95148.98
2017-08-07T23:41:53.207Z,95152.27
2017-08-07T23:44:20.951Z,95149.05
2017-08-07T23:46:48.511Z,95150.73
2017-08-07T23:49:16.103Z,95153.52
2017-08-07T23:51:43.717Z,95150.80
2017-08-07T23:54:11.328Z,95158.63
2017-08-07T23:56:38.904Z,95162.63
2017-08-07T23:59:06.555Z,95157.02
